sensor_id;sensor_type;location;lat;lon;timestamp;temperature;humidity
37646;DHT22;23489;49.600;6.138;2022-12-07T00:01:11;2.40;99.90
37646;DHT22;23489;49.600;6.138;2022-12-07T00:03:38;2.40;99.90
37646;DHT22;23489;49.600;6.138;2022-12-07T00:06:06;2.40;99.90
37646;DHT22;23489;49.600;6.138;2022-12-07T00:08:33;2.50;99.90
37646;DHT22;23489;49.600;6.138;2022-12-07T00:11:10;2.50;99.90
37646;DHT22;23489;49.600;6.138;2022-12-07T00:13:37;2.40;99.90
37646;DHT22;23489;49.600;6.138;2022-12-07T00:16:08;2.40;99.90
37646;DHT22;23489;49.600;6.138;2022-12-07T00:18:34;2.40;99.90
37646;DHT22;23489;49.600;6.138;2022-12-07T00:21:14;2.40;99.90
37646;DHT22;23489;49.600;6.138;2022-12-07T00:23:42;2.40;99.90
37646;DHT22;23489;49.600;6.138;2022-12-07T00:26:11;2.50;99.90
37646;DHT22;23489;49.600;6.138;2022-12-07T00:28:37;2.50;99.90
37646;DHT22;23489;49.600;6.138;2022-12-07T00:31:08;2.50;99.90
37646;DHT22;23489;49.600;6.138;2022-12-07T00:33:35;2.50;99.90
37646;DHT22;23489;49.600;6.138;2022-12-07T00:36:02;2.60;99.90
37646;DHT22;23489;49.600;6.138;2022-12-07T00:38:30;2.60;99.90
37646;DHT22;23489;49.600;6.138;2022-12-07T00:40:58;2.60;99.90
37646;DHT22;23489;49.600;6.138;2022-12-07T00:43:24;2.60;99.90
37646;DHT22;23489;49.600;6.138;2022-12-07T00:45:50;2.60;99.90
37646;DHT22;23489;49.600;6.138;2022-12-07T00:48:16;2.50;99.90
37646;DHT22;23489;49.600;6.138;2022-12-07T00:50:41;2.50;99.90
37646;DHT22;23489;49.600;6.138;2022-12-07T00:53:07;2.50;99.90
37646;DHT22;23489;49.600;6.138;2022-12-07T00:55:34;2.40;99.90
37646;DHT22;23489;49.600;6.138;2022-12-07T00:57:59;2.50;99.90
37646;DHT22;23489;49.600;6.138;2022-12-07T01:00:25;2.50;99.90
37646;DHT22;23489;49.600;6.138;2022-12-07T01:02:51;2.50;99.90
37646;DHT22;23489;49.600;6.138;2022-12-07T01:05:17;2.50;99.90
37646;DHT22;23489;49.600;6.138;2022-12-07T01:07:42;2.50;99.90
37646;DHT22;23489;49.600;6.138;2022-12-07T01:10:08;2.50;99.90
37646;DHT22;23489;49.600;6.138;2022-12-07T01:12:34;2.50;99.90
37646;DHT22;23489;49.600;6.138;2022-12-07T01:15:00;2.50;99.90
37646;DHT22;23489;49.600;6.138;2022-12-07T01:17:25;2.50;99.90
37646;DHT22;23489;49.600;6.138;2022-12-07T01:19:51;2.40;99.90
37646;DHT22;23489;49.600;6.138;2022-12-07T01:22:16;2.40;99.90
37646;DHT22;23489;49.600;6.138;2022-12-07T01:24:42;2.40;99.90
37646;DHT22;23489;49.600;6.138;2022-12-07T01:27:08;2.40;99.90
37646;DHT22;23489;49.600;6.138;2022-12-07T01:29:33;2.40;99.90
37646;DHT22;23489;49.600;6.138;2022-12-07T01:31:59;2.40;99.90
37646;DHT22;23489;49.600;6.138;2022-12-07T01:34:24;2.40;99.90
37646;DHT22;23489;49.600;6.138;2022-12-07T01:36:50;2.40;99.90
37646;DHT22;23489;49.600;6.138;2022-12-07T01:39:16;2.40;99.90
37646;DHT22;23489;49.600;6.138;2022-12-07T01:41:41;2.40;99.90
37646;DHT22;23489;49.600;6.138;2022-12-07T01:46:54;2.40;99.90
37646;DHT22;23489;49.600;6.138;2022-12-07T01:51:51;2.50;99.90
37646;DHT22;23489;49.600;6.138;2022-12-07T01:54:18;2.50;99.90
37646;DHT22;23489;49.600;6.138;2022-12-07T01:56:50;2.60;99.90
37646;DHT22;23489;49.600;6.138;2022-12-07T01:59:18;2.60;99.90
37646;DHT22;23489;49.600;6.138;2022-12-07T02:01:44;2.60;99.90
37646;DHT22;23489;49.600;6.138;2022-12-07T02:04:11;2.60;99.90
37646;DHT22;23489;49.600;6.138;2022-12-07T02:06:37;2.60;99.90
37646;DHT22;23489;49.600;6.138;2022-12-07T02:09:03;2.60;99.90
37646;DHT22;23489;49.600;6.138;2022-12-07T02:11:29;2.60;99.90
37646;DHT22;23489;49.600;6.138;2022-12-07T02:13:55;2.70;99.90
37646;DHT22;23489;49.600;6.138;2022-12-07T02:16:47;2.70;99.90
37646;DHT22;23489;49.600;6.138;2022-12-07T02:30:17;2.40;99.90
37646;DHT22;23489;49.600;6.138;2022-12-07T02:32:51;2.30;99.90
37646;DHT22;23489;49.600;6.138;2022-12-07T02:35:28;2.20;99.90
37646;DHT22;23489;49.600;6.138;2022-12-07T02:38:04;2.20;99.90
37646;DHT22;23489;49.600;6.138;2022-12-07T02:40:43;2.10;99.90
37646;DHT22;23489;49.600;6.138;2022-12-07T02:43:19;2.10;99.90
37646;DHT22;23489;49.600;6.138;2022-12-07T02:45:47;2.00;99.90
37646;DHT22;23489;49.600;6.138;2022-12-07T02:48:17;2.10;99.90
37646;DHT22;23489;49.600;6.138;2022-12-07T02:50:51;2.10;99.90
37646;DHT22;23489;49.600;6.138;2022-12-07T02:56:12;2.10;99.90
37646;DHT22;23489;49.600;6.138;2022-12-07T03:03:48;2.20;99.90
37646;DHT22;23489;49.600;6.138;2022-12-07T03:06:22;2.20;99.90
37646;DHT22;23489;49.600;6.138;2022-12-07T03:08:58;2.20;99.90
37646;DHT22;23489;49.600;6.138;2022-12-07T03:11:42;2.20;99.90
37646;DHT22;23489;49.600;6.138;2022-12-07T03:14:17;2.20;99.90
37646;DHT22;23489;49.600;6.138;2022-12-07T03:17:00;2.20;99.90
37646;DHT22;23489;49.600;6.138;2022-12-07T03:19:31;2.30;99.90
37646;DHT22;23489;49.600;6.138;2022-12-07T03:22:07;2.30;99.90
37646;DHT22;23489;49.600;6.138;2022-12-07T03:24:43;2.30;99.90
37646;DHT22;23489;49.600;6.138;2022-12-07T03:27:21;2.40;99.90
37646;DHT22;23489;49.600;6.138;2022-12-07T03:29:59;2.40;99.90
37646;DHT22;23489;49.600;6.138;2022-12-07T03:32:56;2.40;99.90
37646;DHT22;23489;49.600;6.138;2022-12-07T03:38:45;2.50;99.90
37646;DHT22;23489;49.600;6.138;2022-12-07T03:40:58;2.50;99.90
37646;DHT22;23489;49.600;6.138;2022-12-07T03:43:30;2.50;99.90
37646;DHT22;23489;49.600;6.138;2022-12-07T03:48:57;2.50;99.90
37646;DHT22;23489;49.600;6.138;2022-12-07T03:51:36;2.50;99.90
37646;DHT22;23489;49.600;6.138;2022-12-07T03:54:30;2.50;99.90
37646;DHT22;23489;49.600;6.138;2022-12-07T03:56:57;2.50;99.90
37646;DHT22;23489;49.600;6.138;2022-12-07T03:59:24;2.60;99.90
37646;DHT22;23489;49.600;6.138;2022-12-07T04:01:55;2.60;99.90
37646;DHT22;23489;49.600;6.138;2022-12-07T04:04:23;2.60;99.90
37646;DHT22;23489;49.600;6.138;2022-12-07T04:06:50;2.60;99.90
37646;DHT22;23489;49.600;6.138;2022-12-07T04:09:16;2.60;99.90
37646;DHT22;23489;49.600;6.138;2022-12-07T04:11:42;2.60;99.90
37646;DHT22;23489;49.600;6.138;2022-12-07T04:14:07;2.70;99.90
37646;DHT22;23489;49.600;6.138;2022-12-07T04:16:54;2.70;99.90
37646;DHT22;23489;49.600;6.138;2022-12-07T04:19:24;2.60;99.90
37646;DHT22;23489;49.600;6.138;2022-12-07T04:21:50;2.60;99.90
37646;DHT22;23489;49.600;6.138;2022-12-07T04:24:16;2.60;99.90
37646;DHT22;23489;49.600;6.138;2022-12-07T04:26:42;2.60;99.90
37646;DHT22;23489;49.600;6.138;2022-12-07T04:29:09;2.50;99.90
37646;DHT22;23489;49.600;6.138;2022-12-07T04:31:35;2.50;99.90
37646;DHT22;23489;49.600;6.138;2022-12-07T04:34:01;2.50;99.90
37646;DHT22;23489;49.600;6.138;2022-12-07T04:36:27;2.40;99.90
37646;DHT22;23489;49.600;6.138;2022-12-07T04:38:54;2.50;99.90
37646;DHT22;23489;49.600;6.138;2022-12-07T04:41:20;2.50;99.90
37646;DHT22;23489;49.600;6.138;2022-12-07T04:43:54;2.50;99.90
37646;DHT22;23489;49.600;6.138;2022-12-07T04:46:20;2.50;99.90
37646;DHT22;23489;49.600;6.138;2022-12-07T04:48:46;2.60;99.90
37646;DHT22;23489;49.600;6.138;2022-12-07T04:51:18;2.60;99.90
37646;DHT22;23489;49.600;6.138;2022-12-07T04:53:44;2.60;99.90
37646;DHT22;23489;49.600;6.138;2022-12-07T04:56:09;2.60;99.90
37646;DHT22;23489;49.600;6.138;2022-12-07T04:58:35;2.60;99.90
37646;DHT22;23489;49.600;6.138;2022-12-07T05:01:00;2.60;99.90
37646;DHT22;23489;49.600;6.138;2022-12-07T05:03:26;2.60;99.90
37646;DHT22;23489;49.600;6.138;2022-12-07T05:05:51;2.60;99.90
37646;DHT22;23489;49.600;6.138;2022-12-07T05:08:17;2.60;99.90
37646;DHT22;23489;49.600;6.138;2022-12-07T05:10:43;2.60;99.90
37646;DHT22;23489;49.600;6.138;2022-12-07T05:13:08;2.60;99.90
37646;DHT22;23489;49.600;6.138;2022-12-07T05:15:34;2.60;99.90
37646;DHT22;23489;49.600;6.138;2022-12-07T05:18:00;2.70;99.90
37646;DHT22;23489;49.600;6.138;2022-12-07T05:20:25;2.70;99.90
37646;DHT22;23489;49.600;6.138;2022-12-07T05:22:51;2.70;99.90
37646;DHT22;23489;49.600;6.138;2022-12-07T05:25:16;2.70;99.90
37646;DHT22;23489;49.600;6.138;2022-12-07T05:27:42;2.70;99.90
37646;DHT22;23489;49.600;6.138;2022-12-07T05:30:08;2.70;99.90
37646;DHT22;23489;49.600;6.138;2022-12-07T05:32:34;2.80;99.90
37646;DHT22;23489;49.600;6.138;2022-12-07T05:34:59;2.80;99.90
37646;DHT22;23489;49.600;6.138;2022-12-07T05:37:25;2.70;99.90
37646;DHT22;23489;49.600;6.138;2022-12-07T05:39:51;2.80;99.90
37646;DHT22;23489;49.600;6.138;2022-12-07T05:42:16;2.80;99.90
37646;DHT22;23489;49.600;6.138;2022-12-07T05:44:46;2.80;99.90
37646;DHT22;23489;49.600;6.138;2022-12-07T05:47:14;2.80;99.90
37646;DHT22;23489;49.600;6.138;2022-12-07T05:49:39;2.80;99.90
37646;DHT22;23489;49.600;6.138;2022-12-07T05:52:06;2.80;99.90
37646;DHT22;23489;49.600;6.138;2022-12-07T05:54:32;2.90;99.90
37646;DHT22;23489;49.600;6.138;2022-12-07T05:56:58;2.90;99.90
37646;DHT22;23489;49.600;6.138;2022-12-07T05:59:24;2.90;99.90
37646;DHT22;23489;49.600;6.138;2022-12-07T06:02:01;2.90;99.90
37646;DHT22;23489;49.600;6.138;2022-12-07T06:04:34;2.90;99.90
37646;DHT22;23489;49.600;6.138;2022-12-07T06:07:00;3.00;99.90
37646;DHT22;23489;49.600;6.138;2022-12-07T06:09:27;3.00;99.90
37646;DHT22;23489;49.600;6.138;2022-12-07T06:11:54;3.00;99.90
37646;DHT22;23489;49.600;6.138;2022-12-07T06:14:38;3.00;99.90
37646;DHT22;23489;49.600;6.138;2022-12-07T06:17:04;3.00;99.90
37646;DHT22;23489;49.600;6.138;2022-12-07T06:19:30;3.00;99.90
37646;DHT22;23489;49.600;6.138;2022-12-07T06:21:56;3.00;99.90
37646;DHT22;23489;49.600;6.138;2022-12-07T06:24:22;3.00;99.90
37646;DHT22;23489;49.600;6.138;2022-12-07T06:26:48;3.00;99.90
37646;DHT22;23489;49.600;6.138;2022-12-07T06:29:14;2.90;99.90
37646;DHT22;23489;49.600;6.138;2022-12-07T06:31:40;2.90;99.90
37646;DHT22;23489;49.600;6.138;2022-12-07T06:34:10;2.90;99.90
37646;DHT22;23489;49.600;6.138;2022-12-07T06:36:36;2.90;99.90
37646;DHT22;23489;49.600;6.138;2022-12-07T06:39:03;3.00;99.90
37646;DHT22;23489;49.600;6.138;2022-12-07T06:41:29;2.90;99.90
37646;DHT22;23489;49.600;6.138;2022-12-07T06:43:55;3.00;99.90
37646;DHT22;23489;49.600;6.138;2022-12-07T06:46:21;3.00;99.90
37646;DHT22;23489;49.600;6.138;2022-12-07T06:48:47;3.00;99.90
37646;DHT22;23489;49.600;6.138;2022-12-07T06:51:12;3.00;99.90
37646;DHT22;23489;49.600;6.138;2022-12-07T06:53:38;3.00;99.90
37646;DHT22;23489;49.600;6.138;2022-12-07T06:56:04;3.00;99.90
37646;DHT22;23489;49.600;6.138;2022-12-07T06:58:30;3.00;99.90
37646;DHT22;23489;49.600;6.138;2022-12-07T07:00:56;3.00;99.90
37646;DHT22;23489;49.600;6.138;2022-12-07T07:03:22;3.00;99.90
37646;DHT22;23489;49.600;6.138;2022-12-07T07:05:48;3.00;99.90
37646;DHT22;23489;49.600;6.138;2022-12-07T07:08:14;3.00;99.90
37646;DHT22;23489;49.600;6.138;2022-12-07T07:10:40;3.10;99.90
37646;DHT22;23489;49.600;6.138;2022-12-07T07:13:07;3.10;99.90
37646;DHT22;23489;49.600;6.138;2022-12-07T07:15:33;3.10;99.90
37646;DHT22;23489;49.600;6.138;2022-12-07T07:17:59;3.30;99.90
37646;DHT22;23489;49.600;6.138;2022-12-07T07:20:25;3.20;99.90
37646;DHT22;23489;49.600;6.138;2022-12-07T07:22:50;3.20;99.90
37646;DHT22;23489;49.600;6.138;2022-12-07T07:25:18;3.20;99.90
37646;DHT22;23489;49.600;6.138;2022-12-07T07:27:44;3.20;99.90
37646;DHT22;23489;49.600;6.138;2022-12-07T07:30:10;3.20;99.90
37646;DHT22;23489;49.600;6.138;2022-12-07T07:32:36;3.20;99.90
37646;DHT22;23489;49.600;6.138;2022-12-07T07:35:02;3.30;99.90
37646;DHT22;23489;49.600;6.138;2022-12-07T07:37:28;3.30;99.90
37646;DHT22;23489;49.600;6.138;2022-12-07T07:39:54;3.30;99.90
37646;DHT22;23489;49.600;6.138;2022-12-07T07:42:19;3.30;99.90
37646;DHT22;23489;49.600;6.138;2022-12-07T07:44:45;3.30;99.90
37646;DHT22;23489;49.600;6.138;2022-12-07T07:47:11;3.40;99.90
37646;DHT22;23489;49.600;6.138;2022-12-07T07:49:37;3.40;99.90
37646;DHT22;23489;49.600;6.138;2022-12-07T07:52:02;3.40;99.90
37646;DHT22;23489;49.600;6.138;2022-12-07T07:54:29;3.30;99.90
37646;DHT22;23489;49.600;6.138;2022-12-07T07:56:54;3.30;99.90
37646;DHT22;23489;49.600;6.138;2022-12-07T07:59:20;3.40;99.90
37646;DHT22;23489;49.600;6.138;2022-12-07T08:01:46;3.40;99.90
37646;DHT22;23489;49.600;6.138;2022-12-07T08:04:11;3.40;99.90
37646;DHT22;23489;49.600;6.138;2022-12-07T08:06:37;3.40;99.90
37646;DHT22;23489;49.600;6.138;2022-12-07T08:09:03;3.60;99.90
37646;DHT22;23489;49.600;6.138;2022-12-07T08:11:30;3.60;99.90
37646;DHT22;23489;49.600;6.138;2022-12-07T08:13:56;3.60;99.90
37646;DHT22;23489;49.600;6.138;2022-12-07T08:16:22;3.60;99.90
37646;DHT22;23489;49.600;6.138;2022-12-07T08:18:47;3.60;99.90
37646;DHT22;23489;49.600;6.138;2022-12-07T08:21:14;3.60;99.90
37646;DHT22;23489;49.600;6.138;2022-12-07T08:23:40;3.60;99.90
37646;DHT22;23489;49.600;6.138;2022-12-07T08:26:09;3.60;99.90
37646;DHT22;23489;49.600;6.138;2022-12-07T08:28:35;3.70;99.90
37646;DHT22;23489;49.600;6.138;2022-12-07T08:31:07;3.80;99.90
37646;DHT22;23489;49.600;6.138;2022-12-07T08:33:34;3.80;99.90
37646;DHT22;23489;49.600;6.138;2022-12-07T08:36:18;3.80;99.90
37646;DHT22;23489;49.600;6.138;2022-12-07T08:38:44;3.80;99.90
37646;DHT22;23489;49.600;6.138;2022-12-07T08:41:10;3.90;99.90
37646;DHT22;23489;49.600;6.138;2022-12-07T08:43:36;3.90;99.90
37646;DHT22;23489;49.600;6.138;2022-12-07T08:49:11;3.80;99.90
37646;DHT22;23489;49.600;6.138;2022-12-07T08:51:39;3.80;99.90
37646;DHT22;23489;49.600;6.138;2022-12-07T08:54:09;3.90;99.90
37646;DHT22;23489;49.600;6.138;2022-12-07T08:56:35;3.90;99.90
37646;DHT22;23489;49.600;6.138;2022-12-07T08:59:01;3.90;99.90
37646;DHT22;23489;49.600;6.138;2022-12-07T09:01:28;3.90;99.90
37646;DHT22;23489;49.600;6.138;2022-12-07T09:03:54;4.00;99.90
37646;DHT22;23489;49.600;6.138;2022-12-07T09:06:20;4.00;99.90
37646;DHT22;23489;49.600;6.138;2022-12-07T09:08:51;4.00;99.90
37646;DHT22;23489;49.600;6.138;2022-12-07T09:11:19;4.00;99.90
37646;DHT22;23489;49.600;6.138;2022-12-07T09:13:44;4.00;99.90
37646;DHT22;23489;49.600;6.138;2022-12-07T09:16:10;4.00;99.90
37646;DHT22;23489;49.600;6.138;2022-12-07T09:18:36;4.00;99.90
37646;DHT22;23489;49.600;6.138;2022-12-07T09:21:01;4.10;99.90
37646;DHT22;23489;49.600;6.138;2022-12-07T09:23:27;4.20;99.90
37646;DHT22;23489;49.600;6.138;2022-12-07T09:25:53;4.30;99.90
37646;DHT22;23489;49.600;6.138;2022-12-07T09:28:18;4.30;99.90
37646;DHT22;23489;49.600;6.138;2022-12-07T09:30:48;4.30;99.90
37646;DHT22;23489;49.600;6.138;2022-12-07T09:33:14;4.30;99.90
37646;DHT22;23489;49.600;6.138;2022-12-07T09:35:50;4.30;99.90
37646;DHT22;23489;49.600;6.138;2022-12-07T09:38:17;4.40;99.90
37646;DHT22;23489;49.600;6.138;2022-12-07T09:40:43;4.40;99.90
37646;DHT22;23489;49.600;6.138;2022-12-07T09:43:18;4.50;99.90
37646;DHT22;23489;49.600;6.138;2022-12-07T09:45:44;4.70;99.90
37646;DHT22;23489;49.600;6.138;2022-12-07T09:48:18;4.80;99.90
37646;DHT22;23489;49.600;6.138;2022-12-07T09:50:46;4.80;99.90
37646;DHT22;23489;49.600;6.138;2022-12-07T09:53:32;4.90;99.90
37646;DHT22;23489;49.600;6.138;2022-12-07T09:55:59;4.90;99.90
37646;DHT22;23489;49.600;6.138;2022-12-07T09:58:27;4.90;99.90
37646;DHT22;23489;49.600;6.138;2022-12-07T10:03:27;4.90;99.90
37646;DHT22;23489;49.600;6.138;2022-12-07T10:05:54;5.00;99.90
37646;DHT22;23489;49.600;6.138;2022-12-07T10:08:21;5.10;99.90
37646;DHT22;23489;49.600;6.138;2022-12-07T10:10:52;5.40;99.90
37646;DHT22;23489;49.600;6.138;2022-12-07T10:13:34;5.60;99.90
37646;DHT22;23489;49.600;6.138;2022-12-07T10:16:00;5.50;99.90
37646;DHT22;23489;49.600;6.138;2022-12-07T10:18:37;5.50;99.90
37646;DHT22;23489;49.600;6.138;2022-12-07T10:21:24;5.40;99.90
37646;DHT22;23489;49.600;6.138;2022-12-07T10:24:13;5.50;99.90
37646;DHT22;23489;49.600;6.138;2022-12-07T10:29:22;5.80;99.90
37646;DHT22;23489;49.600;6.138;2022-12-07T10:32:24;5.70;99.90
37646;DHT22;23489;49.600;6.138;2022-12-07T10:34:52;5.50;99.90
37646;DHT22;23489;49.600;6.138;2022-12-07T10:37:41;5.30;99.90
37646;DHT22;23489;49.600;6.138;2022-12-07T10:40:33;5.10;99.90
37646;DHT22;23489;49.600;6.138;2022-12-07T11:01:48;4.90;99.90
37646;DHT22;23489;49.600;6.138;2022-12-07T11:07:01;4.90;99.90
37646;DHT22;23489;49.600;6.138;2022-12-07T11:18:32;5.50;99.90
37646;DHT22;23489;49.600;6.138;2022-12-07T11:21:12;5.70;99.90
37646;DHT22;23489;49.600;6.138;2022-12-07T11:24:01;5.90;99.90
37646;DHT22;23489;49.600;6.138;2022-12-07T11:26:46;6.20;99.90
37646;DHT22;23489;49.600;6.138;2022-12-07T11:37:19;6.50;99.90
37646;DHT22;23489;49.600;6.138;2022-12-07T11:39:55;6.10;99.90
37646;DHT22;23489;49.600;6.138;2022-12-07T11:42:29;5.90;99.90
37646;DHT22;23489;49.600;6.138;2022-12-07T11:45:14;5.80;99.90
37646;DHT22;23489;49.600;6.138;2022-12-07T11:48:06;5.80;99.90
37646;DHT22;23489;49.600;6.138;2022-12-07T11:50:48;5.80;99.90
37646;DHT22;23489;49.600;6.138;2022-12-07T11:53:29;5.90;99.90
37646;DHT22;23489;49.600;6.138;2022-12-07T11:56:07;6.00;99.90
37646;DHT22;23489;49.600;6.138;2022-12-07T11:58:35;6.00;99.90
37646;DHT22;23489;49.600;6.138;2022-12-07T12:03:51;6.00;99.90
37646;DHT22;23489;49.600;6.138;2022-12-07T12:06:18;6.10;99.90
37646;DHT22;23489;49.600;6.138;2022-12-07T12:22:37;6.00;99.90
37646;DHT22;23489;49.600;6.138;2022-12-07T12:25:18;5.90;99.90
37646;DHT22;23489;49.600;6.138;2022-12-07T12:27:47;6.00;99.90
37646;DHT22;23489;49.600;6.138;2022-12-07T12:30:33;6.10;99.90
37646;DHT22;23489;49.600;6.138;2022-12-07T12:33:20;6.10;99.90
37646;DHT22;23489;49.600;6.138;2022-12-07T12:36:17;6.20;99.90
37646;DHT22;23489;49.600;6.138;2022-12-07T12:41:54;6.20;99.90
37646;DHT22;23489;49.600;6.138;2022-12-07T12:46:57;6.00;99.90
37646;DHT22;23489;49.600;6.138;2022-12-07T12:57:17;6.00;99.90
37646;DHT22;23489;49.600;6.138;2022-12-07T13:02:29;6.00;99.90
37646;DHT22;23489;49.600;6.138;2022-12-07T13:05:03;5.90;99.90
37646;DHT22;23489;49.600;6.138;2022-12-07T13:13:08;6.00;99.90
37646;DHT22;23489;49.600;6.138;2022-12-07T13:28:43;5.60;99.90
37646;DHT22;23489;49.600;6.138;2022-12-07T13:31:11;5.60;99.90
37646;DHT22;23489;49.600;6.138;2022-12-07T13:33:38;5.60;99.90
37646;DHT22;23489;49.600;6.138;2022-12-07T13:36:05;5.60;99.90
37646;DHT22;23489;49.600;6.138;2022-12-07T13:38:38;5.60;99.90
37646;DHT22;23489;49.600;6.138;2022-12-07T13:41:13;5.50;99.90
37646;DHT22;23489;49.600;6.138;2022-12-07T13:43:43;5.50;99.90
37646;DHT22;23489;49.600;6.138;2022-12-07T13:46:11;5.50;99.90
37646;DHT22;23489;49.600;6.138;2022-12-07T13:48:45;5.60;99.90
37646;DHT22;23489;49.600;6.138;2022-12-07T13:51:26;5.60;99.90
37646;DHT22;23489;49.600;6.138;2022-12-07T13:53:54;5.60;99.90
37646;DHT22;23489;49.600;6.138;2022-12-07T13:56:28;5.40;99.90
37646;DHT22;23489;49.600;6.138;2022-12-07T13:58:57;5.40;99.90
37646;DHT22;23489;49.600;6.138;2022-12-07T14:01:24;5.40;99.90
37646;DHT22;23489;49.600;6.138;2022-12-07T14:03:50;5.50;99.90
37646;DHT22;23489;49.600;6.138;2022-12-07T14:08:45;5.60;99.90
37646;DHT22;23489;49.600;6.138;2022-12-07T14:11:17;5.70;99.90
37646;DHT22;23489;49.600;6.138;2022-12-07T14:16:31;5.80;99.90
37646;DHT22;23489;49.600;6.138;2022-12-07T14:19:00;5.90;99.90
37646;DHT22;23489;49.600;6.138;2022-12-07T14:21:28;5.90;99.90
37646;DHT22;23489;49.600;6.138;2022-12-07T14:24:15;5.70;99.90
37646;DHT22;23489;49.600;6.138;2022-12-07T14:26:42;5.60;99.90
37646;DHT22;23489;49.600;6.138;2022-12-07T14:31:55;5.60;99.90
37646;DHT22;23489;49.600;6.138;2022-12-07T14:34:22;5.60;99.90
37646;DHT22;23489;49.600;6.138;2022-12-07T14:36:48;5.60;99.90
37646;DHT22;23489;49.600;6.138;2022-12-07T14:39:14;5.50;99.90
37646;DHT22;23489;49.600;6.138;2022-12-07T14:41:39;5.60;99.90
37646;DHT22;23489;49.600;6.138;2022-12-07T14:44:22;5.70;99.90
37646;DHT22;23489;49.600;6.138;2022-12-07T14:46:49;5.70;99.90
37646;DHT22;23489;49.600;6.138;2022-12-07T14:49:17;5.80;99.90
37646;DHT22;23489;49.600;6.138;2022-12-07T14:51:45;5.80;99.90
37646;DHT22;23489;49.600;6.138;2022-12-07T14:54:17;5.80;99.90
37646;DHT22;23489;49.600;6.138;2022-12-07T14:56:44;5.80;99.90
37646;DHT22;23489;49.600;6.138;2022-12-07T14:59:11;5.70;99.90
37646;DHT22;23489;49.600;6.138;2022-12-07T15:01:37;5.60;99.90
37646;DHT22;23489;49.600;6.138;2022-12-07T15:04:03;5.60;99.90
37646;DHT22;23489;49.600;6.138;2022-12-07T15:06:29;5.50;99.90
37646;DHT22;23489;49.600;6.138;2022-12-07T15:08:55;5.50;99.90
37646;DHT22;23489;49.600;6.138;2022-12-07T15:11:20;5.40;99.90
37646;DHT22;23489;49.600;6.138;2022-12-07T15:13:46;5.40;99.90
37646;DHT22;23489;49.600;6.138;2022-12-07T15:16:30;5.30;99.90
37646;DHT22;23489;49.600;6.138;2022-12-07T15:18:56;5.20;99.90
37646;DHT22;23489;49.600;6.138;2022-12-07T15:21:22;5.20;99.90
37646;DHT22;23489;49.600;6.138;2022-12-07T15:23:48;5.10;99.90
37646;DHT22;23489;49.600;6.138;2022-12-07T15:26:14;5.10;99.90
37646;DHT22;23489;49.600;6.138;2022-12-07T15:28:40;5.00;99.90
37646;DHT22;23489;49.600;6.138;2022-12-07T15:31:16;5.00;99.90
37646;DHT22;23489;49.600;6.138;2022-12-07T15:33:43;5.00;99.90
37646;DHT22;23489;49.600;6.138;2022-12-07T15:36:19;4.90;99.90
37646;DHT22;23489;49.600;6.138;2022-12-07T15:38:46;4.90;99.90
37646;DHT22;23489;49.600;6.138;2022-12-07T15:41:11;4.90;99.90
37646;DHT22;23489;49.600;6.138;2022-12-07T15:43:37;4.90;99.90
37646;DHT22;23489;49.600;6.138;2022-12-07T15:46:21;4.80;99.90
37646;DHT22;23489;49.600;6.138;2022-12-07T15:48:47;4.90;99.90
37646;DHT22;23489;49.600;6.138;2022-12-07T15:51:13;4.90;99.90
37646;DHT22;23489;49.600;6.138;2022-12-07T15:53:39;4.90;99.90
37646;DHT22;23489;49.600;6.138;2022-12-07T15:56:07;4.80;99.90
37646;DHT22;23489;49.600;6.138;2022-12-07T15:58:33;4.80;99.90
37646;DHT22;23489;49.600;6.138;2022-12-07T16:00:59;4.80;99.90
37646;DHT22;23489;49.600;6.138;2022-12-07T16:03:27;4.80;99.90
37646;DHT22;23489;49.600;6.138;2022-12-07T16:05:53;4.80;99.90
37646;DHT22;23489;49.600;6.138;2022-12-07T16:08:19;4.80;99.90
37646;DHT22;23489;49.600;6.138;2022-12-07T16:10:44;4.70;99.90
37646;DHT22;23489;49.600;6.138;2022-12-07T16:13:11;4.70;99.90
37646;DHT22;23489;49.600;6.138;2022-12-07T16:15:40;4.70;99.90
37646;DHT22;23489;49.600;6.138;2022-12-07T16:18:06;4.60;99.90
37646;DHT22;23489;49.600;6.138;2022-12-07T16:20:32;4.60;99.90
37646;DHT22;23489;49.600;6.138;2022-12-07T16:22:58;4.60;99.90
37646;DHT22;23489;49.600;6.138;2022-12-07T16:25:23;4.60;99.90
37646;DHT22;23489;49.600;6.138;2022-12-07T16:27:50;4.60;99.90
37646;DHT22;23489;49.600;6.138;2022-12-07T16:30:16;4.50;99.90
37646;DHT22;23489;49.600;6.138;2022-12-07T16:32:43;4.50;99.90
37646;DHT22;23489;49.600;6.138;2022-12-07T16:35:09;4.50;99.90
37646;DHT22;23489;49.600;6.138;2022-12-07T16:37:35;4.50;99.90
37646;DHT22;23489;49.600;6.138;2022-12-07T16:40:01;4.40;99.90
37646;DHT22;23489;49.600;6.138;2022-12-07T16:42:26;4.40;99.90
37646;DHT22;23489;49.600;6.138;2022-12-07T16:44:56;4.40;99.90
37646;DHT22;23489;49.600;6.138;2022-12-07T16:47:22;4.30;99.90
37646;DHT22;23489;49.600;6.138;2022-12-07T16:49:47;4.30;99.90
37646;DHT22;23489;49.600;6.138;2022-12-07T16:52:13;4.30;99.90
37646;DHT22;23489;49.600;6.138;2022-12-07T16:54:39;4.30;99.90
37646;DHT22;23489;49.600;6.138;2022-12-07T16:57:04;4.20;99.90
37646;DHT22;23489;49.600;6.138;2022-12-07T16:59:30;4.20;99.90
37646;DHT22;23489;49.600;6.138;2022-12-07T17:01:56;4.10;99.90
37646;DHT22;23489;49.600;6.138;2022-12-07T17:04:22;4.00;99.90
37646;DHT22;23489;49.600;6.138;2022-12-07T17:06:48;4.00;99.90
37646;DHT22;23489;49.600;6.138;2022-12-07T17:09:13;4.10;99.90
37646;DHT22;23489;49.600;6.138;2022-12-07T17:11:39;4.10;99.90
37646;DHT22;23489;49.600;6.138;2022-12-07T17:14:08;4.00;99.90
37646;DHT22;23489;49.600;6.138;2022-12-07T17:16:52;4.00;99.90
37646;DHT22;23489;49.600;6.138;2022-12-07T17:19:18;4.00;99.90
37646;DHT22;23489;49.600;6.138;2022-12-07T17:21:44;4.00;99.90
37646;DHT22;23489;49.600;6.138;2022-12-07T17:24:12;3.90;99.90
37646;DHT22;23489;49.600;6.138;2022-12-07T17:26:38;3.90;99.90
37646;DHT22;23489;49.600;6.138;2022-12-07T17:29:05;3.80;99.90
37646;DHT22;23489;49.600;6.138;2022-12-07T17:31:31;3.70;99.90
37646;DHT22;23489;49.600;6.138;2022-12-07T17:33:57;3.80;99.90
37646;DHT22;23489;49.600;6.138;2022-12-07T17:36:28;3.80;99.90
37646;DHT22;23489;49.600;6.138;2022-12-07T17:38:54;3.80;99.90
37646;DHT22;23489;49.600;6.138;2022-12-07T17:41:22;3.80;99.90
37646;DHT22;23489;49.600;6.138;2022-12-07T17:44:10;3.80;99.90
37646;DHT22;23489;49.600;6.138;2022-12-07T17:46:36;3.80;99.90
37646;DHT22;23489;49.600;6.138;2022-12-07T17:49:03;3.90;99.90
37646;DHT22;23489;49.600;6.138;2022-12-07T17:51:29;3.90;99.90
37646;DHT22;23489;49.600;6.138;2022-12-07T17:54:14;3.90;99.90
37646;DHT22;23489;49.600;6.138;2022-12-07T17:56:40;3.90;99.90
37646;DHT22;23489;49.600;6.138;2022-12-07T17:59:05;3.80;99.90
37646;DHT22;23489;49.600;6.138;2022-12-07T18:01:32;3.90;99.90
37646;DHT22;23489;49.600;6.138;2022-12-07T18:03:58;3.90;99.90
37646;DHT22;23489;49.600;6.138;2022-12-07T18:06:24;3.90;99.90
37646;DHT22;23489;49.600;6.138;2022-12-07T18:08:49;3.90;99.90
37646;DHT22;23489;49.600;6.138;2022-12-07T18:11:15;3.90;99.90
37646;DHT22;23489;49.600;6.138;2022-12-07T18:13:41;4.00;99.90